Time;durP1;ratioP1;P1;durP2;ratioP2;P2;SDS_P1;SDS_P2;PMS_P1;PMS_P2;Temp;Humidity;BMP_temperature;BMP_pressure;BME280_temperature;BME280_humidity;BME280_pressure;Samples;Min_cycle;Max_cycle;Signal;HPM_P1;HPM_P2
2024/01/08 00:01:36;;;;;;;7.18;5.47;;;;;;;7.07;68.51;98379.25;5093380;28;20028;-47
2024/01/08 00:04:03;;;;;;;7.50;5.35;;;;;;;7.04;68.29;98397.88;5091823;28;20051;-48
2024/01/08 00:06:29;;;;;;;8.15;5.53;;;;;;;6.98;68.37;98399.41;5093041;28;20525;-47
2024/01/08 00:08:55;;;;;;;8.23;6.90;;;;;;;6.96;69.22;98389.19;5091677;28;20056;-48
2024/01/08 00:11:21;;;;;;;7.57;6.43;;;;;;;7.08;69.47;98388.69;5091644;28;20107;-48
2024/01/08 00:13:46;;;;;;;6.30;5.65;;;;;;;7.19;67.37;98380.38;5091561;28;20036;-48
2024/01/08 00:16:12;;;;;;;7.65;5.93;;;;;;;7.19;67.80;98388.22;5092891;28;20070;-48
2024/01/08 00:18:38;;;;;;;7.90;6.00;;;;;;;7.13;67.36;98391.56;5091920;28;20449;-48
2024/01/08 00:21:04;;;;;;;7.32;5.53;;;;;;;7.14;67.55;98390.56;5092810;28;20016;-48
2024/01/08 00:23:31;;;;;;;7.40;5.53;;;;;;;6.96;66.90;98388.38;5091448;28;20028;-47
2024/01/08 00:25:57;;;;;;;27.73;21.17;;;;;;;6.86;67.31;98386.06;5091529;28;20489;-47
2024/01/08 00:28:23;;;;;;;38.10;34.15;;;;;;;6.86;68.15;98391.28;5091331;28;20115;-47
2024/01/08 00:30:49;;;;;;;29.63;26.52;;;;;;;6.93;68.10;98393.97;5092580;28;20024;-47
2024/01/08 00:33:14;;;;;;;25.85;22.52;;;;;;;6.94;69.34;98400.78;5091220;28;20077;-48
2024/01/08 00:35:40;;;;;;;10.65;8.75;;;;;;;6.99;67.77;98385.41;5092324;28;20436;-47
2024/01/08 00:38:06;;;;;;;12.27;9.93;;;;;;;6.91;67.30;98396.75;5092503;28;20016;-47
2024/01/08 00:40:31;;;;;;;9.32;7.63;;;;;;;6.86;67.92;98399.13;5091109;28;20051;-47
2024/01/08 00:42:57;;;;;;;12.35;10.18;;;;;;;6.78;68.15;98392.19;5091128;28;20055;-47
2024/01/08 00:45:23;;;;;;;13.65;8.82;;;;;;;6.77;68.36;98385.34;5091046;28;20020;-47
2024/01/08 00:47:49;;;;;;;8.45;6.53;;;;;;;6.79;67.72;98385.19;5092378;28;20024;-47
2024/01/08 00:50:16;;;;;;;10.85;9.60;;;;;;;6.76;68.05;98394.19;5092254;28;20020;-47
2024/01/08 00:52:42;;;;;;;7.28;5.88;;;;;;;6.79;68.07;98391.19;5090863;28;20114;-47
2024/01/08 00:55:11;;;;;;;9.68;7.47;;;;;;;6.77;68.41;98392.38;5092198;28;20115;-47
2024/01/08 00:57:38;;;;;;;10.00;6.80;;;;;;;6.72;68.07;98387.72;5092235;28;20020;-47
2024/01/08 01:00:05;;;;;;;9.38;7.25;;;;;;;6.60;68.10;98394.41;5090800;28;20071;-47
2024/01/08 01:02:30;;;;;;;9.27;7.18;;;;;;;6.60;70.11;98391.78;5092064;28;20060;-47
2024/01/08 01:04:56;;;;;;;8.75;7.28;;;;;;;6.64;70.72;98395.66;5073919;28;20066;-47
2024/01/08 01:07:23;;;;;;;12.02;8.02;;;;;;;6.51;69.96;98395.47;5092022;28;20400;-47
2024/01/08 01:09:48;;;;;;;11.30;6.97;;;;;;;6.32;71.32;98399.44;5091991;28;20051;-47
2024/01/08 01:12:14;;;;;;;8.48;6.85;;;;;;;6.23;72.93;98405.72;5090733;28;20123;-48
2024/01/08 01:14:40;;;;;;;12.00;9.68;;;;;;;6.17;73.07;98395.00;5090674;28;20034;-47
2024/01/08 01:17:06;;;;;;;11.45;8.93;;;;;;;6.06;73.64;98405.09;5090590;28;20050;-47
2024/01/08 01:19:32;;;;;;;10.68;8.10;;;;;;;5.98;73.89;98416.41;5091907;28;20028;-47
2024/01/08 01:21:58;;;;;;;11.30;7.25;;;;;;;5.96;74.96;98407.94;5090595;28;20027;-48
2024/01/08 01:24:24;;;;;;;13.15;8.45;;;;;;;5.93;74.62;98413.47;5090514;28;20028;-47
2024/01/08 01:26:50;;;;;;;16.90;10.90;;;;;;;5.94;73.80;98423.72;5090497;28;20020;-47
2024/01/08 01:29:16;;;;;;;12.05;10.60;;;;;;;5.86;73.57;98417.78;5093007;28;20024;-48
2024/01/08 01:31:42;;;;;;;10.57;8.20;;;;;;;5.89;75.45;98418.22;5095983;28;20110;-48
2024/01/08 01:34:10;;;;;;;11.27;8.50;;;;;;;5.93;74.98;98416.06;5095690;28;20055;-47
2024/01/08 01:36:37;;;;;;;11.50;7.72;;;;;;;5.96;74.70;98413.97;5096181;28;20024;-47
2024/01/08 01:39:06;;;;;;;11.48;7.43;;;;;;;5.95;74.25;98408.91;5094565;28;20016;-47
2024/01/08 01:41:32;;;;;;;9.93;6.55;;;;;;;5.87;74.24;98417.59;5094527;28;20154;-47
2024/01/08 01:43:59;;;;;;;8.13;6.80;;;;;;;5.87;74.77;98409.78;5095879;28;20512;-47
2024/01/08 01:46:32;;;;;;;13.40;9.30;;;;;;;6.01;74.66;98429.03;5094452;28;20020;-48
2024/01/08 01:48:58;;;;;;;8.02;6.05;;;;;;;6.10;73.28;98408.97;5095823;28;20516;-47
2024/01/08 01:51:24;;;;;;;9.90;6.65;;;;;;;6.06;73.79;98434.56;5095704;28;20028;-48
2024/01/08 01:53:50;;;;;;;7.13;5.72;;;;;;;6.14;73.44;98418.03;5094298;28;20078;-47
2024/01/08 01:56:16;;;;;;;8.57;6.85;;;;;;;6.10;73.60;98435.00;5095566;28;20027;-47
2024/01/08 01:58:42;;;;;;;8.77;5.70;;;;;;;6.01;73.47;98421.22;5094292;28;20077;-47
2024/01/08 02:01:08;;;;;;;10.10;7.40;;;;;;;6.00;73.50;98432.66;5095479;28;20072;-48
2024/01/08 02:03:35;;;;;;;10.13;7.28;;;;;;;5.98;73.49;98427.63;5094119;28;20028;-47
2024/01/08 02:06:06;;;;;;;9.65;7.05;;;;;;;5.93;73.87;98429.09;5094100;28;20375;-48
2024/01/08 02:08:32;;;;;;;8.70;7.15;;;;;;;5.96;73.33;98421.78;5094097;28;20122;-48
2024/01/08 02:10:58;;;;;;;10.30;7.10;;;;;;;5.97;72.46;98433.00;5095327;28;20577;-48
2024/01/08 02:13:24;;;;;;;8.93;6.32;;;;;;;6.06;73.94;98426.72;5095165;28;20012;-48
2024/01/08 02:15:50;;;;;;;10.60;7.78;;;;;;;6.22;73.35;98432.75;5095154;28;20570;-48
2024/01/08 02:18:18;;;;;;;11.13;8.73;;;;;;;6.30;72.48;98430.06;5093815;28;20020;-47
2024/01/08 02:20:44;;;;;;;8.68;7.03;;;;;;;6.27;70.24;98433.84;5095088;28;20035;-48
2024/01/08 02:23:09;;;;;;;11.38;10.15;;;;;;;6.14;70.06;98431.06;5093839;28;20460;-48
2024/01/08 02:25:36;;;;;;;8.75;6.75;;;;;;;6.13;70.49;98432.03;5095051;28;20099;-48
2024/01/08 02:28:02;;;;;;;11.27;7.10;;;;;;;6.10;71.55;98435.00;5094979;28;20040;-48
2024/01/08 02:30:27;;;;;;;9.05;7.90;;;;;;;6.16;72.61;98435.09;5093601;28;20020;-48
2024/01/08 02:32:53;;;;;;;12.38;8.05;;;;;;;6.26;70.84;98436.63;5093500;28;20035;-47
2024/01/08 02:35:19;;;;;;;9.93;7.00;;;;;;;6.31;70.34;98429.09;5093222;28;20044;-48
2024/01/08 02:37:45;;;;;;;8.15;6.55;;;;;;;6.31;70.13;98434.31;5094817;28;20486;-48
2024/01/08 02:40:12;;;;;;;13.32;7.40;;;;;;;6.26;71.07;98434.84;5092900;28;20022;-48
2024/01/08 02:42:41;;;;;;;8.85;6.10;;;;;;;6.22;70.22;98427.53;5076110;28;20075;-48
2024/01/08 02:45:08;;;;;;;9.80;8.48;;;;;;;6.13;71.16;98440.66;5093322;28;20024;-48
2024/01/08 02:47:40;;;;;;;9.43;6.82;;;;;;;6.23;71.54;98431.78;5094527;28;20394;-48
2024/01/08 02:50:07;;;;;;;14.13;8.35;;;;;;;6.23;71.88;98434.38;5094651;28;20529;-48
2024/01/08 02:52:33;;;;;;;9.48;6.85;;;;;;;6.25;72.35;98435.00;5094457;28;20504;-48
2024/01/08 02:55:00;;;;;;;12.70;7.38;;;;;;;6.25;70.14;98435.00;5093221;28;20031;-48
2024/01/08 02:57:29;;;;;;;9.02;6.43;;;;;;;6.17;70.00;98430.69;5093143;28;20031;-47
2024/01/08 02:59:58;;;;;;;13.68;8.45;;;;;;;6.07;70.46;98430.94;5093102;28;20562;-47
2024/01/08 03:02:27;;;;;;;9.82;5.70;;;;;;;6.15;71.15;98433.47;5094314;28;20021;-48
2024/01/08 03:04:53;;;;;;;11.00;6.70;;;;;;;6.22;70.58;98423.16;5092985;28;20025;-47
2024/01/08 03:07:20;;;;;;;8.70;6.32;;;;;;;6.14;69.63;98429.25;5092939;28;20035;-48
2024/01/08 03:09:49;;;;;;;10.35;7.45;;;;;;;6.14;70.29;98425.84;5092934;28;20024;-47
2024/01/08 03:12:15;;;;;;;10.45;7.03;;;;;;;6.16;70.13;98424.69;5092849;28;20022;-47
2024/01/08 03:14:43;;;;;;;9.63;6.75;;;;;;;6.16;68.68;98419.47;5094018;28;20059;-48
2024/01/08 03:17:09;;;;;;;10.15;7.00;;;;;;;6.07;68.10;98420.53;5094044;28;20024;-47
2024/01/08 03:19:35;;;;;;;7.85;6.38;;;;;;;5.99;68.72;98431.03;5092999;28;20073;-47
2024/01/08 03:22:01;;;;;;;10.27;7.28;;;;;;;5.89;69.18;98428.63;5093970;28;20016;-48
2024/01/08 03:24:28;;;;;;;11.68;7.53;;;;;;;5.86;70.64;98428.19;5093899;28;20020;-47
2024/01/08 03:26:54;;;;;;;12.38;9.43;;;;;;;5.89;68.10;98427.81;5093907;28;20032;-48
2024/01/08 03:29:19;;;;;;;11.65;7.95;;;;;;;5.78;68.80;98422.06;5093912;28;20387;-48
2024/01/08 03:31:46;;;;;;;10.10;7.13;;;;;;;5.68;69.10;98421.50;5092496;28;20498;-47
2024/01/08 03:34:13;;;;;;;10.90;6.57;;;;;;;5.69;69.93;98428.31;5093408;28;20055;-48
2024/01/08 03:36:38;;;;;;;13.55;6.82;;;;;;;5.76;70.02;98415.41;5093751;28;20024;-47
2024/01/08 03:39:04;;;;;;;10.88;5.97;;;;;;;5.84;70.66;98435.38;5093720;28;20037;-47
2024/01/08 03:41:30;;;;;;;8.05;6.10;;;;;;;5.89;70.34;98425.22;5093536;28;20027;-47
2024/01/08 03:43:56;;;;;;;9.85;5.90;;;;;;;5.91;69.55;98434.47;5092301;28;20032;-47
2024/01/08 03:46:21;;;;;;;9.98;6.35;;;;;;;5.89;68.74;98430.44;5092192;28;20028;-47
2024/01/08 03:48:48;;;;;;;10.18;6.60;;;;;;;5.76;69.47;98434.44;5092199;28;20123;-48
2024/01/08 03:51:14;;;;;;;8.43;5.72;;;;;;;5.76;68.60;98429.25;5093353;28;20053;-47
2024/01/08 03:53:40;;;;;;;11.63;6.57;;;;;;;5.72;68.50;98435.78;5091784;28;20036;-47
2024/01/08 03:56:06;;;;;;;10.45;7.30;;;;;;;5.72;68.66;98419.34;5093324;28;20028;-47
2024/01/08 03:58:31;;;;;;;8.48;6.55;;;;;;;5.67;68.28;98432.88;5093293;28;20111;-47
2024/01/08 04:00:57;;;;;;;12.55;7.07;;;;;;;5.55;67.60;98435.09;5093213;28;20027;-47
2024/01/08 04:03:23;;;;;;;7.00;5.25;;;;;;;5.53;68.40;98439.69;5091824;28;20571;-47
2024/01/08 04:05:48;;;;;;;9.85;6.85;;;;;;;5.57;68.03;98442.72;5091874;28;20032;-47
2024/01/08 04:08:14;;;;;;;8.40;6.00;;;;;;;5.51;68.44;98436.41;5092986;28;20047;-47
2024/01/08 04:10:40;;;;;;;8.02;5.65;;;;;;;5.51;67.78;98441.63;5091772;28;20050;-47
2024/01/08 04:13:06;;;;;;;10.07;6.75;;;;;;;5.42;68.59;98445.28;5092915;28;20056;-47
2024/01/08 04:15:32;;;;;;;9.77;6.57;;;;;;;5.47;69.31;98455.16;5092931;28;20085;-47
2024/01/08 04:17:57;;;;;;;8.15;5.38;;;;;;;5.50;67.99;98445.22;5091615;28;20024;-47
2024/01/08 04:20:23;;;;;;;7.25;6.50;;;;;;;5.50;67.70;98460.03;5092828;28;20020;-47
2024/01/08 04:22:50;;;;;;;11.00;8.30;;;;;;;5.45;67.07;98455.31;5092820;28;20035;-47
2024/01/08 04:25:16;;;;;;;10.93;7.55;;;;;;;5.35;68.56;98457.34;5092737;28;20024;-47
2024/01/08 04:27:45;;;;;;;9.35;7.10;;;;;;;5.35;68.45;98450.38;5092757;28;20436;-47
2024/01/08 04:30:12;;;;;;;11.73;6.75;;;;;;;5.23;69.22;98454.31;5092594;28;20032;-47
2024/01/08 04:32:38;;;;;;;9.18;6.53;;;;;;;5.14;68.91;98455.38;5091259;28;20031;-47
2024/01/08 04:35:04;;;;;;;13.13;10.50;;;;;;;5.03;70.23;98446.16;5091048;28;20410;-47
2024/01/08 04:37:30;;;;;;;11.95;7.80;;;;;;;4.97;70.63;98452.84;5092470;28;20418;-47
2024/01/08 04:39:55;;;;;;;12.10;7.45;;;;;;;5.00;70.93;98454.28;5091209;28;20062;-47
2024/01/08 04:42:21;;;;;;;6.95;5.18;;;;;;;5.05;68.85;98431.19;5092488;28;20028;-47
2024/01/08 04:44:47;;;;;;;13.45;6.30;;;;;;;4.94;69.39;98465.38;5091146;28;20497;-47
2024/01/08 04:47:13;;;;;;;10.32;8.18;;;;;;;4.88;69.76;98461.66;5092385;28;20027;-47
2024/01/08 04:49:39;;;;;;;12.73;6.50;;;;;;;4.86;70.06;98457.63;5091025;28;20032;-47
2024/01/08 04:52:05;;;;;;;11.05;6.82;;;;;;;4.90;71.13;98454.50;5092322;28;20039;-47
2024/01/08 04:54:31;;;;;;;9.05;6.28;;;;;;;5.07;71.81;98463.06;5092193;28;20017;-47
2024/01/08 04:56:57;;;;;;;11.95;7.63;;;;;;;5.17;71.70;98461.03;5092211;28;20461;-47
2024/01/08 04:59:23;;;;;;;12.18;8.45;;;;;;;5.09;69.55;98458.50;5092191;28;20505;-47
2024/01/08 05:01:50;;;;;;;10.00;6.47;;;;;;;5.05;68.98;98459.81;5090869;28;20378;-47
2024/01/08 05:04:19;;;;;;;9.95;6.95;;;;;;;5.12;69.80;98465.13;5091418;28;20028;-47
2024/01/08 05:06:45;;;;;;;15.00;10.95;;;;;;;5.15;70.62;98468.22;5092100;28;20020;-47
2024/01/08 05:09:11;;;;;;;10.07;8.65;;;;;;;5.27;70.22;98467.81;5090710;28;20024;-47
2024/01/08 05:11:37;;;;;;;7.32;6.30;;;;;;;5.36;70.41;98464.19;5090663;28;20085;-47
2024/01/08 05:14:04;;;;;;;11.95;7.20;;;;;;;5.39;68.51;98469.03;5091954;28;20031;-47
2024/01/08 05:16:29;;;;;;;40.20;33.03;;;;;;;5.40;68.94;98473.28;5091951;28;20020;-47
2024/01/08 05:18:55;;;;;;;13.40;8.70;;;;;;;5.31;67.72;98472.50;5090615;28;20070;-47
2024/01/08 05:21:21;;;;;;;13.40;7.38;;;;;;;5.18;67.42;98482.66;5091899;28;20024;-47
2024/01/08 05:23:47;;;;;;;9.75;6.10;;;;;;;5.11;68.59;98487.75;5091909;28;20043;-47
2024/01/08 05:26:12;;;;;;;9.95;6.53;;;;;;;5.17;68.96;98486.22;5091920;28;20111;-47
2024/01/08 05:28:38;;;;;;;10.20;6.35;;;;;;;5.24;68.45;98476.78;5091857;28;20488;-47
2024/01/08 05:31:04;;;;;;;10.45;7.90;;;;;;;5.31;67.35;98493.34;5090480;28;20081;-47
2024/01/08 05:33:30;;;;;;;12.48;7.47;;;;;;;5.39;68.57;98488.09;5090441;28;20454;-47
2024/01/08 05:35:56;;;;;;;9.85;6.82;;;;;;;5.33;68.98;98486.16;5090228;28;20406;-47
2024/01/08 05:38:22;;;;;;;9.40;7.47;;;;;;;5.34;68.77;98492.97;5090357;28;20016;-47
2024/01/08 05:40:49;;;;;;;13.80;11.10;;;;;;;5.43;68.56;98488.53;5090466;28;20028;-47
2024/01/08 05:43:15;;;;;;;12.23;6.47;;;;;;;5.46;67.74;98496.00;5090399;28;20529;-47
2024/01/08 05:45:41;;;;;;;11.55;7.43;;;;;;;5.44;67.88;98497.16;5090327;28;20028;-47
2024/01/08 05:48:07;;;;;;;10.38;6.60;;;;;;;5.42;68.07;98492.13;5090412;28;20035;-47
2024/01/08 05:50:33;;;;;;;12.48;6.60;;;;;;;5.41;66.98;98498.28;5091922;28;20020;-47
2024/01/08 05:53:00;;;;;;;7.10;5.78;;;;;;;5.45;67.29;98498.78;5091485;28;20031;-47
2024/01/08 05:55:26;;;;;;;8.68;5.53;;;;;;;5.50;65.31;98499.06;5091828;28;20431;-47
2024/01/08 05:57:52;;;;;;;7.55;5.45;;;;;;;5.47;64.70;98509.81;5090276;28;20016;-48
2024/01/08 06:00:18;;;;;;;8.98;4.90;;;;;;;5.42;64.09;98501.72;5090253;28;20028;-47
2024/01/08 06:02:44;;;;;;;9.70;5.15;;;;;;;5.27;65.43;98504.22;5090279;28;20393;-47
2024/01/08 06:05:11;;;;;;;17.60;5.60;;;;;;;5.24;66.06;98513.19;5091498;28;20016;-47
2024/01/08 06:07:37;;;;;;;12.95;7.75;;;;;;;5.27;66.08;98514.63;5091419;28;20031;-47
2024/01/08 06:10:03;;;;;;;13.20;7.85;;;;;;;5.18;65.80;98514.69;5090136;28;20402;-47
2024/01/08 06:12:29;;;;;;;13.50;5.63;;;;;;;5.12;67.00;98509.34;5091297;28;20024;-47
2024/01/08 06:14:55;;;;;;;16.92;6.30;;;;;;;5.12;66.81;98514.56;5090784;28;20038;-47
2024/01/08 06:17:22;;;;;;;12.13;5.13;;;;;;;5.04;66.30;98499.00;5093887;28;20030;-47
2024/01/08 06:19:48;;;;;;;24.65;6.55;;;;;;;5.01;67.17;98510.56;5095271;28;20024;-47
2024/01/08 06:22:15;;;;;;;12.98;5.63;;;;;;;5.02;67.43;98506.94;5095085;28;20023;-47
2024/01/08 06:24:41;;;;;;;13.43;6.15;;;;;;;4.91;68.04;98510.75;5095109;28;20405;-47
2024/01/08 06:27:07;;;;;;;8.70;5.78;;;;;;;4.84;68.64;98511.56;5095055;28;20528;-47
2024/01/08 06:29:33;;;;;;;6.95;4.40;;;;;;;4.70;69.11;98515.69;5094986;28;20035;-47
2024/01/08 06:31:59;;;;;;;20.52;6.22;;;;;;;4.46;70.58;98519.94;5094951;28;20111;-47
2024/01/08 06:34:25;;;;;;;10.32;6.32;;;;;;;4.37;71.05;98513.97;5093272;28;20528;-47
2024/01/08 06:36:51;;;;;;;12.23;6.50;;;;;;;4.24;72.33;98512.84;5094906;28;20028;-47
2024/01/08 06:39:17;;;;;;;10.20;5.75;;;;;;;4.24;73.36;98516.22;5094850;28;20498;-47
2024/01/08 06:41:43;;;;;;;8.23;6.20;;;;;;;4.24;73.89;98513.63;5093501;28;20028;-47
2024/01/08 06:44:08;;;;;;;8.25;5.55;;;;;;;4.08;72.98;98521.44;5094781;28;20111;-47
2024/01/08 06:46:34;;;;;;;8.07;6.07;;;;;;;3.94;75.46;98520.28;5093347;28;20032;-47
2024/01/08 06:49:00;;;;;;;8.73;6.13;;;;;;;3.92;75.43;98527.44;5094683;28;20036;-47
2024/01/08 06:51:25;;;;;;;7.90;6.07;;;;;;;3.90;76.44;98524.19;5094554;28;20027;-47
2024/01/08 06:53:51;;;;;;;14.13;5.78;;;;;;;3.83;75.15;98533.63;5093189;28;20020;-47
2024/01/08 06:56:17;;;;;;;9.25;6.93;;;;;;;3.72;75.69;98537.31;5094514;28;20104;-47
2024/01/08 06:58:43;;;;;;;9.68;6.10;;;;;;;3.71;76.65;98544.28;5094463;28;20103;-47
2024/01/08 07:01:08;;;;;;;14.63;5.75;;;;;;;3.83;77.89;98534.41;5093127;28;20036;-47
2024/01/08 07:03:35;;;;;;;8.82;5.00;;;;;;;3.96;75.51;98541.72;5093076;28;20111;-47
2024/01/08 07:06:01;;;;;;;10.27;5.68;;;;;;;3.90;75.28;98544.97;5094230;28;20115;-47
2024/01/08 07:08:27;;;;;;;14.48;5.13;;;;;;;3.96;75.41;98550.34;5094305;28;20052;-47
2024/01/08 07:10:53;;;;;;;16.77;5.60;;;;;;;4.00;74.02;98549.03;5094235;28;20442;-47
2024/01/08 07:13:18;;;;;;;8.10;3.60;;;;;;;4.05;72.34;98550.34;5094102;28;20024;-47
2024/01/08 07:15:48;;;;;;;7.63;4.90;;;;;;;4.04;72.15;98564.28;5076008;28;20027;-47
2024/01/08 07:18:20;;;;;;;10.57;5.40;;;;;;;4.16;72.81;98556.00;5092774;28;20101;-47
2024/01/08 07:20:47;;;;;;;9.63;5.78;;;;;;;4.20;71.65;98565.13;5094370;28;20459;-47
2024/01/08 07:23:15;;;;;;;10.35;5.43;;;;;;;4.30;72.61;98570.13;5094289;28;20064;-47
2024/01/08 07:25:42;;;;;;;8.05;4.63;;;;;;;4.48;71.86;98559.56;5093949;28;20504;-47
2024/01/08 07:28:09;;;;;;;7.35;5.05;;;;;;;4.53;71.54;98567.69;5091980;28;20081;-47
2024/01/08 07:30:36;;;;;;;7.82;4.50;;;;;;;4.65;70.58;98562.97;5093845;28;20031;-47
2024/01/08 07:33:03;;;;;;;8.38;5.95;;;;;;;4.69;70.68;98566.03;5093760;28;20713;-47
2024/01/08 07:35:28;;;;;;;9.00;5.63;;;;;;;4.74;71.11;98568.97;5093531;28;20499;-47
2024/01/08 07:37:57;;;;;;;8.27;4.65;;;;;;;4.79;70.15;98567.50;5093742;28;20099;-47
2024/01/08 07:40:24;;;;;;;10.23;5.70;;;;;;;4.74;70.20;98576.75;5092313;28;20028;-47
2024/01/08 07:42:54;;;;;;;7.25;4.60;;;;;;;4.81;70.35;98569.94;5092307;28;20059;-48
2024/01/08 07:45:22;;;;;;;9.95;5.35;;;;;;;4.82;69.38;98583.72;5093559;28;20111;-47
2024/01/08 07:47:48;;;;;;;8.98;4.82;;;;;;;4.66;69.55;98581.97;5092242;28;20036;-45
2024/01/08 07:50:14;;;;;;;8.95;4.90;;;;;;;4.62;68.25;98586.69;5092131;28;20119;-45
2024/01/08 07:52:41;;;;;;;9.93;5.80;;;;;;;4.69;69.83;98597.22;5092066;28;20118;-45
2024/01/08 07:55:07;;;;;;;6.50;4.72;;;;;;;4.94;67.70;98603.19;5092042;28;20020;-47
2024/01/08 07:57:34;;;;;;;9.20;5.10;;;;;;;4.84;66.24;98592.97;5092028;28;20205;-47
2024/01/08 07:59:59;;;;;;;4.95;4.05;;;;;;;4.73;66.35;98601.94;5093262;28;20023;-47
2024/01/08 08:02:25;;;;;;;7.65;5.10;;;;;;;4.71;67.56;98611.69;5093231;28;20020;-47
2024/01/08 08:04:53;;;;;;;6.40;4.50;;;;;;;4.76;67.41;98606.81;5091893;28;20028;-47
2024/01/08 08:07:19;;;;;;;5.93;4.63;;;;;;;4.76;67.10;98612.00;5091797;28;20386;-47
2024/01/08 08:09:45;;;;;;;7.75;5.28;;;;;;;4.69;66.95;98612.81;5093027;28;20108;-48
2024/01/08 08:12:11;;;;;;;10.43;5.40;;;;;;;4.75;66.55;98615.59;5091794;28;20371;-47
2024/01/08 08:14:36;;;;;;;10.65;4.75;;;;;;;4.71;66.55;98623.88;5092909;28;20028;-47
2024/01/08 08:17:03;;;;;;;6.55;3.78;;;;;;;4.84;67.92;98620.78;5091616;28;20506;-47
2024/01/08 08:19:29;;;;;;;12.18;5.28;;;;;;;4.89;69.11;98624.50;5092882;28;20031;-47
2024/01/08 08:21:56;;;;;;;6.60;4.63;;;;;;;5.00;66.84;98633.75;5091546;28;20103;-48
2024/01/08 08:24:22;;;;;;;9.93;4.85;;;;;;;4.91;65.19;98630.34;5092868;28;20020;-47
2024/01/08 08:26:48;;;;;;;11.73;4.50;;;;;;;4.84;65.65;98637.19;5091559;28;20051;-47
2024/01/08 08:29:14;;;;;;;8.02;3.88;;;;;;;4.74;65.00;98637.34;5091647;28;20381;-45
2024/01/08 08:31:40;;;;;;;9.35;4.63;;;;;;;4.76;66.37;98635.41;5091711;28;20016;-45
2024/01/08 08:34:06;;;;;;;30.45;5.38;;;;;;;4.82;67.67;98649.53;5091123;28;20116;-48
2024/01/08 08:36:31;;;;;;;21.75;5.10;;;;;;;4.88;67.11;98645.47;5092585;28;20571;-47
2024/01/08 08:38:57;;;;;;;34.80;5.53;;;;;;;4.95;66.87;98647.25;5091779;28;20504;-47
2024/01/08 08:41:23;;;;;;;38.88;8.57;;;;;;;5.04;66.48;98648.03;5092527;28;20019;-47
2024/01/08 08:43:49;;;;;;;18.05;5.43;;;;;;;4.99;66.85;98645.94;5091154;28;20084;-47
2024/01/08 08:46:17;;;;;;;13.35;5.18;;;;;;;5.10;67.20;98652.56;5092370;28;20521;-47
2024/01/08 08:48:44;;;;;;;28.45;5.45;;;;;;;5.14;66.61;98653.06;5092410;28;20024;-47
2024/01/08 08:51:10;;;;;;;17.30;5.28;;;;;;;5.08;65.96;98657.13;5091087;28;20063;-48
2024/01/08 08:53:37;;;;;;;30.85;4.93;;;;;;;5.05;66.13;98661.84;5092190;28;20107;-48
2024/01/08 08:56:04;;;;;;;61.63;6.85;;;;;;;5.08;66.61;98664.13;5092193;28;20080;-48
2024/01/08 08:58:30;;;;;;;65.50;10.82;;;;;;;5.17;66.95;98668.31;5092230;28;20020;-45
2024/01/08 09:00:56;;;;;;;21.80;4.78;;;;;;;5.16;64.44;98667.53;5092525;28;20046;-45
2024/01/08 09:03:24;;;;;;;22.00;5.28;;;;;;;5.05;65.54;98669.66;5090830;28;20564;-45
2024/01/08 09:05:52;;;;;;;7.07;4.97;;;;;;;4.96;66.37;98676.66;5090774;28;20452;-46
2024/01/08 09:08:18;;;;;;;11.63;4.57;;;;;;;4.95;66.44;98675.03;5092148;28;20153;-45
2024/01/08 09:10:43;;;;;;;18.67;5.00;;;;;;;4.75;66.81;98680.59;5092097;28;20367;-45
2024/01/08 09:13:10;;;;;;;12.07;4.65;;;;;;;4.78;66.97;98679.44;5092013;28;20028;-45
2024/01/08 09:15:36;;;;;;;16.63;5.70;;;;;;;4.83;67.72;98684.13;5090653;28;20020;-45
2024/01/08 09:18:02;;;;;;;16.67;4.88;;;;;;;4.71;67.70;98683.66;5091994;28;20028;-45
2024/01/08 09:20:28;;;;;;;18.60;5.20;;;;;;;4.64;67.51;98701.69;5091842;28;20032;-45
2024/01/08 09:22:53;;;;;;;13.00;5.15;;;;;;;4.66;67.66;98685.94;5091944;28;20083;-45
2024/01/08 09:25:19;;;;;;;8.18;4.20;;;;;;;4.69;67.37;98688.19;5091822;28;20024;-45
2024/01/08 09:27:45;;;;;;;8.85;3.92;;;;;;;4.89;67.32;98699.91;5091866;28;20375;-47
2024/01/08 09:30:11;;;;;;;5.22;4.53;;;;;;;5.07;67.00;98691.94;5091849;28;20078;-47
2024/01/08 09:32:37;;;;;;;7.75;4.88;;;;;;;5.16;67.04;98695.34;5091757;28;20447;-48
2024/01/08 09:35:03;;;;;;;13.35;5.00;;;;;;;5.18;66.01;98699.38;5090242;28;20498;-48
2024/01/08 09:37:28;;;;;;;11.32;4.22;;;;;;;5.20;66.05;98701.84;5091775;28;20020;-48
2024/01/08 09:39:54;;;;;;;7.53;4.75;;;;;;;5.27;66.69;98697.59;5090457;28;20024;-47
2024/01/08 09:42:21;;;;;;;15.45;6.72;;;;;;;5.31;65.96;98701.50;5090400;28;20047;-48
2024/01/08 09:44:54;;;;;;;9.23;5.68;;;;;;;5.30;66.15;98706.84;5091750;28;20129;-47
2024/01/08 09:47:21;;;;;;;7.72;4.93;;;;;;;5.24;67.12;98713.53;5091637;28;20063;-46
2024/01/08 09:49:50;;;;;;;5.88;4.05;;;;;;;5.26;66.92;98706.38;5092109;28;20025;-45
2024/01/08 09:52:17;;;;;;;5.65;4.15;;;;;;;5.32;65.65;98713.50;5094465;28;20035;-45
2024/01/08 09:54:43;;;;;;;7.55;3.83;;;;;;;5.36;64.30;98714.00;5094339;28;20028;-47
2024/01/08 09:57:09;;;;;;;7.68;4.57;;;;;;;5.25;65.00;98717.78;5095526;28;20032;-47
2024/01/08 09:59:35;;;;;;;12.32;4.63;;;;;;;5.12;65.73;98727.84;5095562;28;20031;-47
2024/01/08 10:02:02;;;;;;;13.70;4.57;;;;;;;5.07;65.84;98736.16;5094274;28;20028;-48
2024/01/08 10:04:28;;;;;;;26.35;6.43;;;;;;;4.99;66.85;98736.97;5095426;28;20032;-47
2024/01/08 10:07:08;;;;;;;18.38;6.25;;;;;;;5.05;67.78;98738.13;5095391;28;20040;-47
2024/01/08 10:09:34;;;;;;;10.20;4.90;;;;;;;5.11;67.56;98729.66;5095425;28;20032;-48
2024/01/08 10:12:00;;;;;;;35.78;20.95;;;;;;;5.04;67.05;98736.47;5095294;28;20028;-48
2024/01/08 10:14:26;;;;;;;20.08;15.35;;;;;;;5.06;68.25;98736.31;5095285;28;20404;-48
2024/01/08 10:16:54;;;;;;;35.80;28.23;;;;;;;5.10;68.77;98740.22;5095217;28;20088;-48
2024/01/08 10:19:23;;;;;;;16.10;10.98;;;;;;;5.24;68.01;98731.75;5095266;28;20366;-47
2024/01/08 10:22:15;;;;;;;9.98;8.43;;;;;;;5.27;66.14;98731.44;5095132;28;20032;-48
2024/01/08 10:24:43;;;;;;;10.05;7.63;;;;;;;5.11;65.52;98736.63;5090043;28;20119;-47
2024/01/08 10:27:10;;;;;;;29.35;23.23;;;;;;;5.08;65.56;98736.97;5095041;28;20039;-47
2024/01/08 10:29:37;;;;;;;9.63;4.95;;;;;;;5.10;65.93;98741.03;5093747;28;20062;-45
2024/01/08 10:32:04;;;;;;;8.32;4.45;;;;;;;5.15;66.13;98732.72;5094992;28;20023;-45
2024/01/08 10:34:30;;;;;;;9.85;4.70;;;;;;;5.22;66.34;98740.69;5094601;28;20417;-48
2024/01/08 10:36:58;;;;;;;10.52;4.43;;;;;;;5.23;67.14;98729.31;5094955;28;20039;-48
2024/01/08 10:39:30;;;;;;;7.80;4.78;;;;;;;5.37;68.17;98724.25;5095117;28;20196;-48
2024/01/08 10:41:58;;;;;;;7.68;3.88;;;;;;;5.54;67.10;98732.00;5094821;28;20028;-48
2024/01/08 10:44:25;;;;;;;8.30;4.82;;;;;;;5.39;65.82;98730.09;5094802;28;20456;-48
2024/01/08 10:46:57;;;;;;;7.80;3.88;;;;;;;5.29;67.67;98729.47;5093413;28;20408;-48
2024/01/08 10:49:32;;;;;;;4.32;3.85;;;;;;;5.14;66.90;98734.50;5093388;28;20025;-48
2024/01/08 10:51:59;;;;;;;8.93;4.28;;;;;;;5.18;67.30;98733.22;5094613;28;20032;-48
2024/01/08 10:54:44;;;;;;;10.32;5.03;;;;;;;5.19;66.32;98734.84;5094456;28;20093;-48
2024/01/08 10:57:13;;;;;;;12.25;6.25;;;;;;;5.04;66.64;98735.66;5094596;28;20062;-48
2024/01/08 10:59:42;;;;;;;18.33;8.43;;;;;;;4.86;68.02;98736.63;5094421;28;20035;-48
2024/01/08 11:02:12;;;;;;;10.02;5.57;;;;;;;4.87;68.80;98729.63;5092212;28;20455;-48
2024/01/08 11:04:39;;;;;;;9.55;4.72;;;;;;;5.05;69.23;98732.91;5094429;28;20032;-46
2024/01/08 11:07:06;;;;;;;8.63;4.60;;;;;;;5.39;69.09;98724.06;5093006;28;20028;-46
2024/01/08 11:09:34;;;;;;;14.02;9.55;;;;;;;5.60;67.91;98726.94;5094196;28;20032;-46
2024/01/08 11:12:01;;;;;;;8.57;4.22;;;;;;;5.71;67.53;98717.94;5094227;28;20077;-46
2024/01/08 11:14:29;;;;;;;14.43;4.63;;;;;;;5.62;67.05;98726.78;5092830;28;20028;-45
2024/01/08 11:16:56;;;;;;;5.47;4.05;;;;;;;5.41;67.01;98729.91;5092839;28;20459;-45
2024/01/08 11:19:22;;;;;;;7.38;4.38;;;;;;;5.22;68.11;98732.88;5094074;28;20024;-48
2024/01/08 11:21:49;;;;;;;10.55;4.57;;;;;;;5.20;68.02;98725.25;5094057;28;20027;-48
2024/01/08 11:24:16;;;;;;;6.47;5.30;;;;;;;5.14;68.05;98724.09;5094045;28;20024;-48
2024/01/08 11:26:47;;;;;;;7.15;4.70;;;;;;;5.01;68.78;98726.41;5093943;28;20024;-48
2024/01/08 11:29:16;;;;;;;7.97;6.95;;;;;;;4.98;69.62;98721.53;5094000;28;20050;-48
2024/01/08 11:31:51;;;;;;;8.00;4.68;;;;;;;4.94;71.46;98726.22;5093828;28;20518;-48
2024/01/08 11:34:35;;;;;;;6.40;5.35;;;;;;;4.95;71.64;98712.28;5092223;28;20068;-48